Time;durP1;ratioP1;P1;durP2;ratioP2;P2;SDS_P1;SDS_P2;PMS_P1;PMS_P2;Temp;Humidity;BMP_temperature;BMP_pressure;BME280_temperature;BME280_humidity;BME280_pressure;Samples;Min_cycle;Max_cycle;Signal;HPM_P1;HPM_P2
2022/02/12 00:01:09;;;;;;;;;9.50;8.00;;;;;5.02;65.81;100752.53;6285885;20;2760721;-44
2022/02/12 00:03:37;;;;;;;;;9.00;7.25;;;;;5.11;65.13;100767.44;6336425;20;1818509;-45
2022/02/12 00:06:05;;;;;;;;;6.50;6.00;;;;;5.15;65.29;100769.09;6315544;20;2752403;-45
2022/02/12 00:08:33;;;;;;;;;11.00;9.50;;;;;5.07;65.47;100763.94;6285314;20;2779439;-48
2022/02/12 00:11:01;;;;;;;;;11.00;9.00;;;;;4.87;65.93;100774.16;6285295;20;2765927;-44
2022/02/12 00:13:28;;;;;;;;;12.50;10.00;;;;;4.99;65.52;100767.69;6285361;20;2784709;-44
2022/02/12 00:15:57;;;;;;;;;12.00;8.00;;;;;5.02;66.12;100773.81;6296591;20;2756968;-46
2022/02/12 00:18:28;;;;;;;;;9.86;9.71;;;;;4.88;66.10;100781.22;6358631;20;1808651;-47
2022/02/12 00:20:58;;;;;;;;;7.75;6.00;;;;;4.38;67.33;100783.09;6336201;20;1815970;-44
2022/02/12 00:23:26;;;;;;;;;12.50;9.00;;;;;4.73;66.93;100790.38;6315618;20;2759631;-45
2022/02/12 00:25:54;;;;;;;;;8.00;8.00;;;;;4.91;66.15;100786.47;6318770;20;2687890;-44
2022/02/12 00:28:22;;;;;;;;;6.25;6.25;;;;;4.90;66.33;100784.72;6336287;20;1816527;-45
2022/02/12 00:30:50;;;;;;;;;12.00;6.00;;;;;4.78;66.55;100784.97;6318000;20;2786741;-45
2022/02/12 00:33:18;;;;;;;;;9.50;7.00;;;;;4.98;66.60;100796.09;6317126;20;2753405;-45
2022/02/12 00:35:46;;;;;;;;;9.50;9.50;;;;;5.11;65.99;100798.47;6283136;20;2769187;-45
2022/02/12 00:38:14;;;;;;;;;11.00;5.50;;;;;4.97;66.16;100807.63;6283619;20;2771122;-44
2022/02/12 00:40:44;;;;;;;;;9.83;8.00;;;;;5.04;66.05;100814.59;6327557;20;1804439;-44
2022/02/12 00:43:13;;;;;;;;;10.00;7.75;;;;;5.00;65.58;100812.00;6304297;20;1827398;-43
2022/02/12 00:45:42;;;;;;;;;6.00;6.00;;;;;4.94;66.90;100813.00;6335915;20;1808684;-45
2022/02/12 00:48:09;;;;;;;;;9.00;6.00;;;;;5.01;66.00;100809.34;6316477;20;2745118;-44
2022/02/12 00:50:39;;;;;;;;;10.80;8.40;;;;;4.91;66.09;100810.41;6341076;20;2753567;-44
2022/02/12 00:53:07;;;;;;;;;9.00;6.50;;;;;4.76;67.04;100808.94;6316714;20;2747144;-44
2022/02/12 00:55:36;;;;;;;;;10.00;8.00;;;;;4.91;66.26;100818.41;6298765;20;1805638;-44
2022/02/12 00:58:05;;;;;;;;;9.00;8.25;;;;;4.83;66.68;100828.31;6334042;20;1819209;-44
2022/02/12 01:00:33;;;;;;;;;8.25;7.75;;;;;4.88;66.81;100814.94;6332588;20;1821280;-43
2022/02/12 01:03:04;;;;;;;;;9.00;6.50;;;;;4.56;67.22;100812.00;6316579;20;2750496;-43
2022/02/12 01:05:32;;;;;;;;;11.50;10.00;;;;;4.85;66.83;100818.53;6313470;20;2784606;-45
2022/02/12 01:08:00;;;;;;;;;8.00;6.00;;;;;4.97;66.53;100820.06;6285723;20;2745094;-43
2022/02/12 01:10:29;;;;;;;;;9.00;6.00;;;;;4.45;67.84;100829.94;6335041;20;1810117;-44
2022/02/12 01:12:57;;;;;;;;;7.00;7.00;;;;;4.66;67.54;100831.31;6317848;20;2742060;-43
2022/02/12 01:15:25;;;;;;;;;19.00;8.00;;;;;4.55;67.75;100828.84;6313270;20;2786707;-44
2022/02/12 01:17:56;;;;;;;;;14.17;9.33;;;;;4.76;67.86;100824.03;6321905;20;1816971;-43
2022/02/12 01:20:24;;;;;;;;;8.25;7.75;;;;;4.58;68.22;100822.59;6304039;20;1814841;-43
2022/02/12 01:22:53;;;;;;;;;5.00;5.00;;;;;4.59;67.71;100822.56;6315266;20;3453487;-44
2022/02/12 01:25:21;;;;;;;;;8.00;6.00;;;;;4.64;67.75;100817.16;6313675;20;2747283;-47
2022/02/12 01:27:49;;;;;;;;;10.00;6.00;;;;;4.57;67.56;100816.41;6315994;20;2762873;-47
2022/02/12 01:30:18;;;;;;;;;11.50;7.50;;;;;4.42;68.04;100824.66;6313154;20;2762907;-57
2022/02/12 01:32:49;;;;;;;;;9.50;7.50;;;;;4.40;68.21;100826.47;6326369;20;1803574;-52
2022/02/12 01:35:17;;;;;;;;;7.67;7.67;;;;;4.17;69.35;100822.44;6284694;20;3461742;-51
2022/02/12 01:37:47;;;;;;;;;9.17;6.67;;;;;4.46;68.24;100834.34;6354534;20;1808635;-52
2022/02/12 01:40:16;;;;;;;;;13.00;7.00;;;;;4.39;68.31;100827.38;6285982;20;2760669;-52
2022/02/12 01:42:45;;;;;;;;;10.00;6.33;;;;;4.40;68.89;100821.16;6332707;20;1819116;-50
2022/02/12 01:45:15;;;;;;;;;16.60;10.00;;;;;4.48;68.17;100835.19;6335882;20;2783768;-50
2022/02/12 01:47:44;;;;;;;;;13.00;9.25;;;;;4.27;68.92;100830.25;6302505;20;1826924;-50
2022/02/12 01:50:14;;;;;;;;;7.50;7.50;;;;;4.30;68.67;100830.22;6335179;20;1802097;-52
2022/02/12 01:52:45;;;;;;;;;15.40;15.40;;;;;4.04;69.44;100828.84;6338018;20;2812822;-50
2022/02/12 01:55:15;;;;;;;;;13.60;12.80;;;;;4.06;69.94;100829.72;6304276;20;2782561;-49
2022/02/12 01:57:44;;;;;;;;;19.67;12.67;;;;;4.10;69.20;100823.44;6279749;20;2807544;-51
2022/02/12 02:00:17;;;;;;;;;13.20;10.80;;;;;3.93;70.13;100826.38;6338063;20;2783776;-53
2022/02/12 02:02:46;;;;;;;;;10.00;10.00;;;;;3.97;70.16;100832.50;6300006;20;1814427;-52
2022/02/12 02:05:17;;;;;;;;;16.00;10.00;;;;;4.13;70.52;100833.13;6310131;20;2783655;-52
2022/02/12 02:07:45;;;;;;;;;14.50;10.00;;;;;4.11;69.89;100833.19;6283149;20;2777342;-49
2022/02/12 02:10:15;;;;;;;;;8.67;6.33;;;;;3.84;70.97;100837.13;6281646;20;3451685;-53
2022/02/12 02:12:44;;;;;;;;;10.00;8.50;;;;;4.14;70.25;100833.13;6332851;20;1819743;-52
2022/02/12 02:15:12;;;;;;;;;8.50;7.25;;;;;4.01;70.75;100838.66;6331116;20;1809865;-53
2022/02/12 02:17:41;;;;;;;;;8.00;6.25;;;;;3.78;71.32;100841.69;6332732;20;1804524;-53
2022/02/12 02:20:11;;;;;;;;;9.25;7.25;;;;;4.08;71.23;100841.19;6332002;20;1799260;-54
2022/02/12 02:22:54;;;;;;;;;12.50;9.00;;;;;3.81;71.16;100849.59;6311105;20;2769063;-53
2022/02/12 02:25:24;;;;;;;;;9.00;6.00;;;;;3.88;71.38;100843.28;6298678;20;1817033;-47
2022/02/12 02:27:53;;;;;;;;;7.00;7.00;;;;;3.49;72.67;100854.47;6333315;20;1817074;-48
2022/02/12 02:30:27;;;;;;;;;12.57;11.00;;;;;3.72;72.59;100848.84;6352905;20;1812831;-51
2022/02/12 02:32:57;;;;;;;;;11.50;10.00;;;;;3.74;72.61;100852.34;6313461;20;2765975;-53
2022/02/12 02:35:25;;;;;;;;;14.50;11.50;;;;;3.53;73.44;100863.28;6278959;20;2791954;-48
2022/02/12 02:37:54;;;;;;;;;9.75;8.50;;;;;3.73;73.95;100861.19;6300246;20;1819068;-52
2022/02/12 02:40:24;;;;;;;;;12.00;9.00;;;;;3.72;75.59;100861.25;6312922;20;2763796;-51
2022/02/12 02:42:52;;;;;;;;;14.00;9.00;;;;;3.69;74.88;100870.13;6281195;20;2754952;-50
2022/02/12 02:45:20;;;;;;;;;9.50;9.50;;;;;3.72;75.31;100866.56;6311029;20;2769181;-53
2022/02/12 02:47:48;;;;;;;;;11.00;8.00;;;;;3.77;74.23;100867.38;6315315;20;2740876;-48
2022/02/12 02:56:07;;;;;;;;;13.50;8.00;;;;;3.64;74.22;100876.41;6322695;20;1808632;-53
2022/02/12 02:58:45;;;;;;;;;8.83;8.67;;;;;3.85;73.92;100880.53;6324013;20;1816969;-50
2022/02/12 03:01:18;;;;;;;;;9.00;9.00;;;;;3.63;74.06;100894.09;6299817;20;1823338;-47
2022/02/12 03:03:51;;;;;;;;;12.50;11.00;;;;;3.38;75.31;100898.88;6312117;20;2796084;-47
2022/02/12 03:06:27;;;;;;;;;12.50;7.00;;;;;3.49;75.54;100896.06;6279546;20;2775508;-50
2022/02/12 03:08:57;;;;;;;;;9.50;8.25;;;;;3.52;75.02;100893.38;6300224;20;1821146;-50
2022/02/12 03:11:25;;;;;;;;;11.00;11.00;;;;;3.56;75.24;100894.22;6311751;20;2774275;-48
2022/02/12 03:13:57;;;;;;;;;14.50;12.00;;;;;3.42;75.73;100908.56;6280151;20;2792600;-50
2022/02/12 03:16:25;;;;;;;;;13.00;13.00;;;;;3.44;75.64;100921.81;6280635;20;2776313;-49
2022/02/12 03:18:55;;;;;;;;;14.67;11.17;;;;;3.60;75.71;100927.78;6317856;20;1814873;-50
2022/02/12 03:21:24;;;;;;;;;14.00;12.00;;;;;3.62;75.23;100931.31;6278241;20;2785695;-50
2022/02/12 03:23:52;;;;;;;;;11.50;11.00;;;;;3.48;76.19;100940.34;6276594;20;2776301;-49
2022/02/12 03:26:20;;;;;;;;;10.00;10.00;;;;;3.53;76.00;100937.63;6280415;20;2779462;-48
2022/02/12 03:28:48;;;;;;;;;17.00;14.00;;;;;3.47;76.38;100940.34;6277163;20;2802600;-49
2022/02/12 03:31:17;;;;;;;;;10.75;10.75;;;;;3.50;76.53;100942.94;6296618;20;1837925;-49
2022/02/12 03:33:45;;;;;;;;;11.00;11.00;;;;;3.53;76.57;100942.94;6309015;20;2788833;-50
2022/02/12 03:36:13;;;;;;;;;11.00;11.00;;;;;3.50;76.91;100948.25;6280877;20;2777427;-49
2022/02/12 03:38:47;;;;;;;;;9.00;9.00;;;;;3.40;76.47;100939.56;6279366;20;2748166;-51
2022/02/12 03:41:16;;;;;;;;;15.00;11.00;;;;;3.57;76.28;100944.66;6278409;20;2781625;-48
2022/02/12 03:43:43;;;;;;;;;16.00;13.00;;;;;3.28;76.97;100943.22;6274735;20;2794132;-48
2022/02/12 03:46:12;;;;;;;;;14.00;10.00;;;;;3.28;77.32;100948.53;6277670;20;2771092;-48
2022/02/12 03:48:42;;;;;;;;;19.80;13.60;;;;;3.03;77.39;100952.38;6302613;20;2803382;-50
2022/02/12 03:51:10;;;;;;;;;19.00;11.00;;;;;3.38;77.40;100957.28;6279052;20;2797231;-48
2022/02/12 03:53:37;;;;;;;;;11.50;11.50;;;;;3.43;76.78;100955.44;6280377;20;2782549;-48
2022/02/12 03:56:05;;;;;;;;;14.00;10.50;;;;;3.29;77.29;100960.91;6280612;20;2776380;-48
2022/02/12 03:58:33;;;;;;;;;13.00;10.50;;;;;3.22;77.56;100967.19;6284260;20;2789832;-48
2022/02/12 04:01:01;;;;;;;;;16.50;13.50;;;;;3.04;79.03;100959.41;6286267;20;2798206;-46
2022/02/12 04:03:29;;;;;;;;;20.00;12.00;;;;;3.07;78.29;100965.56;6284259;20;2793016;-48
2022/02/12 04:05:57;;;;;;;;;20.67;17.00;;;;;3.15;78.10;100970.78;6286087;20;3571049;-48
2022/02/12 04:08:25;;;;;;;;;14.50;14.50;;;;;3.20;78.43;100971.63;6315421;20;2789838;-48
2022/02/12 04:10:55;;;;;;;;;18.40;12.60;;;;;3.26;78.12;100965.34;6311525;20;2802448;-48
2022/02/12 04:13:29;;;;;;;;;17.00;12.29;;;;;3.17;78.52;100957.50;6324558;20;1819120;-50
2022/02/12 04:15:56;;;;;;;;;9.00;8.00;;;;;3.17;78.02;100966.34;6317873;20;2744007;-51
2022/02/12 04:18:26;;;;;;;;;14.20;12.80;;;;;3.21;77.44;100969.84;6340488;20;2778456;-50
2022/02/12 04:20:59;;;;;;;;;22.00;13.67;;;;;2.84;79.10;100979.06;6284366;20;3546123;-51
2022/02/12 04:23:28;;;;;;;;;19.00;14.67;;;;;2.96;78.54;100982.50;6315994;20;3553430;-49
2022/02/12 04:25:56;;;;;;;;;21.00;21.00;;;;;2.73;79.63;100991.50;6317026;20;2824259;-50
2022/02/12 04:28:26;;;;;;;;;17.00;14.00;;;;;2.72;79.86;100984.47;6282282;20;2821116;-47
2022/02/12 04:30:59;;;;;;;;;21.00;17.00;;;;;2.87;78.66;100978.16;6282763;20;3552308;-50
2022/02/12 04:33:27;;;;;;;;;28.50;24.00;;;;;2.85;78.23;100977.28;6313435;20;2500282;-47
2022/02/12 04:35:56;;;;;;;;;16.00;14.33;;;;;2.91;78.07;100974.56;6284772;20;3547519;-50
2022/02/12 04:38:25;;;;;;;;;19.00;17.33;;;;;2.78;78.01;100975.56;6312983;20;3558576;-49
2022/02/12 04:40:53;;;;;;;;;23.67;20.67;;;;;2.87;78.45;100980.81;6314800;20;3553382;-51
2022/02/12 04:43:39;;;;;;;;;16.00;14.00;;;;;2.58;79.20;100975.72;6282985;20;2796123;-51
2022/02/12 04:46:09;;;;;;;;;13.80;9.80;;;;;2.65;78.95;100977.44;6312704;20;2767963;-48
2022/02/12 04:48:37;;;;;;;;;13.00;10.00;;;;;2.74;78.55;100982.69;6314768;20;2789838;-49
2022/02/12 04:51:05;;;;;;;;;18.00;12.50;;;;;2.60;79.49;100984.56;6281872;20;2798191;-49
2022/02/12 04:53:33;;;;;;;;;16.00;13.00;;;;;2.82;78.36;100978.19;6284798;20;2797130;-49
2022/02/12 04:56:02;;;;;;;;;23.33;15.67;;;;;2.80;78.51;100972.00;6284686;20;3575280;-50
2022/02/12 04:58:30;;;;;;;;;21.67;16.67;;;;;2.83;77.78;100974.63;6316707;20;3560075;-48
2022/02/12 05:00:58;;;;;;;;;19.50;16.00;;;;;2.62;78.48;100977.47;6315859;20;2831593;-50
2022/02/12 05:03:27;;;;;;;;;18.33;15.33;;;;;2.74;77.81;100976.47;6283439;20;3548132;-51
2022/02/12 05:05:56;;;;;;;;;20.40;13.40;;;;;2.71;77.99;100974.72;6335542;20;2825258;-48
2022/02/12 05:08:25;;;;;;;;;15.00;14.33;;;;;2.72;77.83;100979.16;6281379;20;3515915;-48
2022/02/12 05:10:54;;;;;;;;;23.33;16.00;;;;;2.72;77.90;100976.50;6315299;20;2821245;-49
2022/02/12 05:13:22;;;;;;;;;18.00;14.00;;;;;2.59;77.85;100982.81;6315901;20;3542137;-50
2022/02/12 05:15:54;;;;;;;;;20.57;14.14;;;;;2.47;77.44;100985.53;6353071;20;1812791;-49
2022/02/12 05:18:21;;;;;;;;;16.00;15.00;;;;;2.71;77.71;100993.28;6313872;20;2820079;-49
2022/02/12 05:20:49;;;;;;;;;14.00;13.00;;;;;2.71;77.47;100987.13;6281777;20;2805544;-48
2022/02/12 05:23:17;;;;;;;;;24.50;21.00;;;;;2.60;78.04;100981.91;6286109;20;2832261;-52
2022/02/12 05:25:45;;;;;;;;;19.00;15.00;;;;;2.67;76.82;100986.28;6284519;20;3553350;-50
2022/02/12 05:28:14;;;;;;;;;22.33;14.00;;;;;2.36;77.91;100989.16;6315873;20;3560782;-51
2022/02/12 05:30:43;;;;;;;;;14.00;12.00;;;;;2.51;77.72;101001.44;6313884;20;2802567;-48
2022/02/12 05:33:11;;;;;;;;;14.00;12.00;;;;;2.60;77.19;101000.47;6282689;20;2798300;-52
2022/02/12 05:35:41;;;;;;;;;13.80;13.00;;;;;2.60;77.02;101000.47;6308371;20;2789885;-52
2022/02/12 05:38:09;;;;;;;;;12.00;12.00;;;;;2.55;77.13;101012.88;6281931;20;2783722;-50
2022/02/12 05:40:38;;;;;;;;;33.33;17.67;;;;;2.33;77.43;101013.03;6281458;20;3594057;-51
2022/02/12 05:43:06;;;;;;;;;36.50;27.00;;;;;2.31;77.61;101024.53;6276719;20;2500274;-52
2022/02/12 05:45:35;;;;;;;;;33.00;25.00;;;;;2.28;77.67;101022.78;6279344;20;2849458;-48
2022/02/12 05:48:04;;;;;;;;;28.00;22.67;;;;;2.16;77.67;101033.47;6281823;20;3585676;-51
2022/02/12 05:50:32;;;;;;;;;20.00;18.00;;;;;2.08;78.20;101037.91;6283802;20;2835688;-50
2022/02/12 05:53:00;;;;;;;;;21.00;12.50;;;;;2.43;77.28;101035.06;6284230;20;2810849;-51
2022/02/12 05:55:28;;;;;;;;;17.00;15.00;;;;;2.54;76.70;101041.16;6281032;20;2823197;-50
2022/02/12 05:57:59;;;;;;;;;20.17;16.00;;;;;2.49;76.48;101035.00;6306510;20;2837863;-49
2022/02/12 06:00:28;;;;;;;;;22.00;20.33;;;;;2.40;77.01;101045.69;6311785;20;3561708;-48
2022/02/12 06:02:58;;;;;;;;;16.33;14.67;;;;;2.38;76.31;101053.63;6312775;20;3534628;-47
2022/02/12 06:05:27;;;;;;;;;13.00;12.00;;;;;2.38;76.47;101048.34;6312182;20;2788782;-49
2022/02/12 06:07:55;;;;;;;;;11.00;9.00;;;;;2.44;76.50;101062.44;6282696;20;2769275;-51
2022/02/12 06:10:23;;;;;;;;;13.00;11.00;;;;;2.51;75.86;101066.81;6314046;20;2789856;-50
2022/02/12 06:12:54;;;;;;;;;11.00;10.00;;;;;2.51;75.70;101064.16;6283114;20;2763814;-49
2022/02/12 06:15:22;;;;;;;;;14.00;13.00;;;;;2.46;76.07;101066.84;6280381;20;2791942;-51
2022/02/12 06:17:50;;;;;;;;;17.00;12.00;;;;;2.39;76.90;101071.28;6283852;20;2811720;-47
2022/02/12 06:20:19;;;;;;;;;18.33;17.00;;;;;2.74;76.43;101069.28;6281149;20;3562811;-49
2022/02/12 06:22:46;;;;;;;;;18.00;13.50;;;;;3.00;75.49;101080.63;6311176;20;2804447;-48
2022/02/12 06:25:16;;;;;;;;;13.80;12.60;;;;;2.61;76.58;101087.09;6304837;20;2782649;-50
2022/02/12 06:27:46;;;;;;;;;24.67;19.67;;;;;2.77;76.53;101087.88;6282284;20;3565348;-50
2022/02/12 06:30:14;;;;;;;;;22.33;20.67;;;;;2.95;76.07;101098.34;6314279;20;3553404;-52
2022/02/12 06:32:43;;;;;;;;;29.67;22.67;;;;;2.80;76.33;101099.31;6312040;20;3593062;-49
2022/02/12 06:35:12;;;;;;;;;26.67;19.00;;;;;2.83;76.52;101096.63;6278687;20;3571082;-52
2022/02/12 06:37:40;;;;;;;;;31.00;27.00;;;;;2.97;76.35;101101.84;6309908;20;2500312;-53
2022/02/12 06:40:10;;;;;;;;;19.00;18.67;;;;;2.84;76.60;101101.06;6281912;20;3550235;-52
2022/02/12 06:42:39;;;;;;;;;42.00;36.00;;;;;3.10;75.34;101107.06;6277966;20;2851289;-49
2022/02/12 06:45:08;;;;;;;;;29.00;24.50;;;;;3.37;74.69;101116.53;6277534;20;2500320;-50
2022/02/12 06:47:39;;;;;;;;;44.50;37.00;;;;;3.96;72.48;101123.03;6281199;20;2855462;-51
2022/02/12 06:50:09;;;;;;;;;40.67;31.67;;;;;4.12;70.58;101124.63;6282574;20;2869020;-48
2022/02/12 06:52:39;;;;;;;;;35.00;30.00;;;;;4.52;70.50;101126.75;6312740;20;2572139;-50
2022/02/12 06:55:09;;;;;;;;;32.00;28.50;;;;;4.89;68.77;101134.22;6308841;20;2846122;-49
2022/02/12 06:57:38;;;;;;;;;30.00;24.00;;;;;5.29;67.86;101136.25;6281687;20;2853358;-48
2022/02/12 07:00:08;;;;;;;;;34.50;28.50;;;;;5.18;67.60;101136.44;6282590;20;2860681;-49
2022/02/12 07:02:37;;;;;;;;;32.00;27.50;;;;;6.08;64.94;101146.41;6281083;20;2847139;-51
2022/02/12 07:05:07;;;;;;;;;18.67;18.33;;;;;6.73;62.50;101151.31;6279464;20;3562726;-51
2022/02/12 07:07:50;;;;;;;;;29.00;26.00;;;;;6.47;62.08;101154.53;6277130;20;2500272;-49
2022/02/12 07:10:21;;;;;;;;;22.33;17.00;;;;;6.93;60.37;101158.88;6280935;20;3557609;-52
2022/02/12 07:12:49;;;;;;;;;22.50;21.00;;;;;6.81;60.00;101162.69;6283297;20;2826326;-50
2022/02/12 07:15:17;;;;;;;;;28.00;23.00;;;;;7.43;59.68;101163.00;6276266;20;2500264;-50
2022/02/12 07:17:45;;;;;;;;;28.00;25.50;;;;;7.39;58.63;101163.09;6280959;20;2844079;-48
2022/02/12 07:20:14;;;;;;;;;24.50;22.00;;;;;7.11;60.73;101162.88;6279621;20;2840918;-51
2022/02/12 07:22:43;;;;;;;;;22.00;17.33;;;;;7.83;58.33;101169.13;6279386;20;3559666;-49
2022/02/12 07:25:13;;;;;;;;;25.00;20.50;;;;;8.52;56.54;101175.25;6278127;20;2494074;-50
2022/02/12 07:27:43;;;;;;;;;22.00;17.00;;;;;7.38;59.45;101174.72;6283297;20;2825369;-51
2022/02/12 07:30:15;;;;;;;;;28.00;22.00;;;;;8.45;57.50;101179.94;6282503;20;2843023;-50
2022/02/12 07:32:45;;;;;;;;;26.67;21.67;;;;;8.35;56.61;101183.75;6282802;20;3584018;-49
2022/02/12 07:35:14;;;;;;;;;21.00;18.50;;;;;8.15;57.02;101181.63;6282686;20;2498354;-48
2022/02/12 07:37:47;;;;;;;;;18.00;15.33;;;;;7.79;58.09;101188.81;6285481;20;3559725;-50
2022/02/12 07:40:17;;;;;;;;;15.00;13.50;;;;;7.38;59.36;101193.44;6320461;20;2798156;-50
2022/02/12 07:42:49;;;;;;;;;10.00;8.00;;;;;8.27;57.54;101200.03;6309040;20;2756708;-49
2022/02/12 07:45:17;;;;;;;;;16.50;12.50;;;;;8.05;57.60;101207.72;6317647;20;2791919;-49
2022/02/12 07:47:47;;;;;;;;;14.00;11.50;;;;;6.53;61.61;101208.66;6283848;20;2796209;-51
2022/02/12 07:50:18;;;;;;;;;13.60;12.00;;;;;6.51;63.86;101210.47;6309680;20;2801303;-49
2022/02/12 07:52:46;;;;;;;;;18.33;15.33;;;;;6.67;61.89;101210.16;6285774;20;3556902;-49
2022/02/12 07:55:16;;;;;;;;;25.00;18.50;;;;;6.66;62.63;101214.63;6315225;20;2819025;-49
2022/02/12 07:57:45;;;;;;;;;20.00;19.50;;;;;6.54;61.97;101222.88;6287788;20;2827355;-47
2022/02/12 08:00:17;;;;;;;;;16.50;16.50;;;;;6.44;63.14;101224.84;6283842;20;2500296;-49
2022/02/12 08:02:45;;;;;;;;;26.00;20.50;;;;;6.37;64.90;101228.53;6283654;20;2500446;-50
2022/02/12 08:05:14;;;;;;;;;24.67;22.67;;;;;6.78;63.40;101225.03;6286627;20;3587780;-47
2022/02/12 08:07:43;;;;;;;;;26.00;22.00;;;;;7.13;62.00;101231.38;6285864;20;3579431;-50
2022/02/12 08:13:03;;;;;;;;;20.00;20.00;;;;;6.47;64.43;101250.56;6286802;20;2826355;-52
2022/02/12 08:15:36;;;;;;;;;26.50;20.00;;;;;6.98;62.84;101248.63;6279881;20;2835728;-52
2022/02/12 08:18:04;;;;;;;;;24.00;20.33;;;;;6.89;62.98;101242.59;6283746;20;3562798;-50
2022/02/12 08:20:33;;;;;;;;;21.67;18.00;;;;;6.75;64.87;101243.78;6284267;20;3559749;-51
2022/02/12 08:23:01;;;;;;;;;18.00;17.00;;;;;6.60;64.71;101246.75;6315392;20;2829497;-50
2022/02/12 08:25:50;;;;;;;;;20.00;15.67;;;;;6.65;64.62;101244.88;6285592;20;3548150;-53
2022/02/12 08:28:37;;;;;;;;;17.00;16.00;;;;;7.22;62.57;101244.53;6298624;20;2812908;-53
2022/02/12 08:31:06;;;;;;;;;16.00;15.33;;;;;6.75;63.21;101250.91;6282556;20;3550231;-48
2022/02/12 08:33:53;;;;;;;;;20.00;15.00;;;;;6.72;62.84;101256.31;6265208;20;2814133;-50
2022/02/12 08:36:22;;;;;;;;;17.67;15.33;;;;;6.99;62.92;101258.41;6285076;20;3555537;-53
2022/02/12 08:38:50;;;;;;;;;16.67;15.00;;;;;7.47;62.08;101262.66;6312531;20;3548151;-49
2022/02/12 08:41:19;;;;;;;;;20.33;17.67;;;;;7.40;62.95;101263.75;6314126;20;3564813;-49
2022/02/12 08:43:48;;;;;;;;;29.00;25.50;;;;;6.90;62.30;101273.72;6312024;20;2854402;-47
2022/02/12 08:46:16;;;;;;;;;17.50;14.00;;;;;6.53;62.75;101272.69;6286248;20;2821166;-49
2022/02/12 08:48:45;;;;;;;;;23.50;18.50;;;;;6.91;61.99;101275.50;6284493;20;2830491;-52
2022/02/12 08:51:13;;;;;;;;;22.67;19.00;;;;;6.44;63.37;101274.66;6285041;20;3562754;-47
2022/02/12 08:53:42;;;;;;;;;18.00;16.00;;;;;7.26;61.17;101274.72;6313979;20;3561814;-47
2022/02/12 08:56:13;;;;;;;;;202.25;171.25;;;;;6.86;62.53;101278.25;6281997;20;4490030;-51
2022/02/12 08:58:43;;;;;;;;;60.00;46.33;;;;;7.26;61.91;101285.41;6282905;20;2870297;-50
2022/02/12 09:01:10;;;;;;;;;27.50;21.50;;;;;6.66;62.76;101289.34;6316302;20;2846086;-48
2022/02/12 09:03:39;;;;;;;;;31.50;31.50;;;;;7.35;60.88;101284.34;6282101;20;2859867;-45
2022/02/12 09:06:08;;;;;;;;;22.33;18.00;;;;;7.29;61.62;101281.78;6283757;20;3555510;-49
2022/02/12 09:08:36;;;;;;;;;28.50;19.00;;;;;7.68;58.81;101288.88;6310085;20;2500266;-44
2022/02/12 09:11:05;;;;;;;;;16.33;14.67;;;;;6.81;61.66;101291.69;6284494;20;3534628;-45
2022/02/12 09:13:34;;;;;;;;;18.00;15.67;;;;;7.76;59.56;101298.53;6314412;20;3539938;-45
2022/02/12 09:16:03;;;;;;;;;83.33;64.00;;;;;6.96;61.66;101293.19;6315129;20;3644420;-49
2022/02/12 09:18:31;;;;;;;;;18.00;14.50;;;;;7.00;61.46;101293.97;6288712;20;2814828;-50
2022/02/12 09:20:59;;;;;;;;;13.00;10.00;;;;;6.75;62.77;101294.50;6284784;20;2802351;-50
2022/02/12 09:23:28;;;;;;;;;45.00;32.67;;;;;6.99;61.61;101297.56;6286683;20;2879521;-50
2022/02/12 09:25:57;;;;;;;;;26.00;22.00;;;;;7.78;59.28;101305.59;6317195;20;2836716;-51
2022/02/12 09:28:26;;;;;;;;;17.67;15.00;;;;;7.67;59.28;101305.84;6286654;20;3536894;-49
2022/02/12 09:30:55;;;;;;;;;12.33;12.00;;;;;7.08;60.29;101313.38;6317525;20;2807834;-52
2022/02/12 09:33:22;;;;;;;;;11.00;10.00;;;;;6.95;60.69;101309.22;6317729;20;2778525;-49
2022/02/12 09:35:56;;;;;;;;;15.00;13.00;;;;;7.16;61.33;101316.81;6290707;20;2794112;-51
2022/02/12 09:38:28;;;;;;;;;36.00;32.00;;;;;7.65;59.40;101314.81;6287235;20;2865913;-44
2022/02/12 09:40:58;;;;;;;;;28.67;25.00;;;;;7.77;58.08;101324.38;6319195;20;3568976;-44
2022/02/12 09:43:29;;;;;;;;;16.50;13.50;;;;;7.31;60.19;101326.25;6319605;20;2813842;-43
2022/02/12 09:46:29;;;;;;;;;11.50;7.50;;;;;7.69;57.99;101321.88;6288055;20;2764867;-46
2022/02/12 09:49:02;;;;;;;;;16.67;14.33;;;;;7.21;59.63;101324.69;6286826;20;3552453;-44
2022/02/12 09:51:32;;;;;;;;;13.50;11.00;;;;;7.16;58.06;101327.50;6319218;20;2783555;-48
2022/02/12 09:54:00;;;;;;;;;17.00;17.00;;;;;7.96;56.77;101328.34;6287530;20;2833616;-50
2022/02/12 09:56:28;;;;;;;;;98.00;85.00;;;;;7.76;57.19;101334.16;6283298;20;2796099;-46
2022/02/12 09:58:57;;;;;;;;;17.00;14.00;;;;;7.36;58.54;101331.53;6281964;20;2804877;-47
2022/02/12 10:01:26;;;;;;;;;16.00;15.00;;;;;7.94;56.93;101327.50;6315255;20;3530486;-48
2022/02/12 10:03:54;;;;;;;;;19.67;16.00;;;;;8.07;56.85;101328.06;6290806;20;3549232;-46
2022/02/12 10:06:41;;;;;;;;;18.67;16.00;;;;;7.73;56.41;101325.34;6318500;20;3567981;-48
2022/02/12 10:09:11;;;;;;;;;24.00;18.67;;;;;8.30;55.66;101330.19;6315777;20;3571052;-47
2022/02/12 10:11:54;;;;;;;;;25.00;23.00;;;;;8.46;54.53;101326.22;6284442;20;2837150;-46
2022/02/12 10:14:27;;;;;;;;;18.50;13.00;;;;;8.36;54.57;101316.63;6287691;20;2800265;-46
2022/02/12 10:17:02;;;;;;;;;19.00;14.67;;;;;7.76;55.19;101326.13;6287045;20;3551311;-46
2022/02/12 10:19:35;;;;;;;;;16.50;13.00;;;;;8.34;54.91;101321.13;6317438;20;2802330;-46
2022/02/12 10:22:23;;;;;;;;;16.00;14.67;;;;;8.27;53.03;101315.09;6284740;20;3539864;-46
2022/02/12 10:25:03;;;;;;;;;15.00;13.00;;;;;8.30;51.77;101319.47;6281543;20;3542963;-45
2022/02/12 10:27:34;;;;;;;;;15.00;14.00;;;;;8.60;51.66;101324.97;6318257;20;2799354;-46
2022/02/12 10:30:05;;;;;;;;;13.20;11.60;;;;;8.59;50.61;101320.53;6306795;20;2791954;-44
2022/02/12 10:32:38;;;;;;;;;18.67;15.33;;;;;8.70;49.93;101318.44;6287279;20;3550317;-47
2022/02/12 10:35:11;;;;;;;;;11.00;11.00;;;;;8.32;51.52;101317.63;6283853;20;2789847;-45
2022/02/12 10:37:47;;;;;;;;;11.00;8.00;;;;;8.70;49.88;101313.09;6289914;20;2760661;-49
2022/02/12 10:40:16;;;;;;;;;18.33;15.00;;;;;8.91;47.34;101312.47;6284160;20;3552347;-45
2022/02/12 10:42:46;;;;;;;;;14.33;12.33;;;;;9.24;46.25;101304.34;6315319;20;3524253;-47
2022/02/12 10:45:17;;;;;;;;;13.00;11.00;;;;;8.65;48.11;101309.66;6314179;20;3525297;-46
2022/02/12 10:47:50;;;;;;;;;8.33;8.33;;;;;8.27;48.86;101299.03;6360881;20;1800287;-52
2022/02/12 10:50:21;;;;;;;;;9.50;8.75;;;;;8.20;47.92;101299.22;6307142;20;1817091;-51
2022/02/12 10:53:00;;;;;;;;;8.00;8.00;;;;;8.45;47.17;101296.78;6336859;20;1804568;-53
2022/02/12 10:55:40;;;;;;;;;6.50;6.50;;;;;9.15;47.46;101294.81;6316909;20;2737743;-55
2022/02/12 10:58:16;;;;;;;;;9.80;8.40;;;;;8.70;47.22;101297.03;6340616;20;2753795;-52
2022/02/12 11:00:44;;;;;;;;;9.00;9.00;;;;;8.96;47.41;101294.47;6319032;20;2744033;-53
2022/02/12 11:03:16;;;;;;;;;12.00;11.00;;;;;9.10;48.39;101296.75;6306296;20;2790020;-53
2022/02/12 11:05:51;;;;;;;;;10.00;9.00;;;;;8.78;47.33;101287.84;6287080;20;2759657;-55
2022/02/12 11:08:25;;;;;;;;;7.50;7.00;;;;;9.26;44.96;101293.59;6285469;20;2733647;-55
2022/02/12 11:10:53;;;;;;;;;9.00;7.00;;;;;9.12;45.82;101286.00;6284486;20;2747135;-55
2022/02/12 11:13:23;;;;;;;;;11.60;8.80;;;;;9.26;44.82;101286.44;6311616;20;2746082;-56
2022/02/12 11:15:51;;;;;;;;;11.00;9.00;;;;;9.65;45.60;101283.44;6315793;20;2773149;-54
2022/02/12 11:18:21;;;;;;;;;8.00;8.00;;;;;9.93;45.76;101282.56;6289357;20;2737864;-54
2022/02/12 11:20:53;;;;;;;;;8.00;8.00;;;;;9.70;45.43;101291.34;6316350;20;2735688;-55
2022/02/12 11:23:21;;;;;;;;;10.50;8.00;;;;;9.47;45.90;101278.66;6285177;20;2758895;-54
2022/02/12 11:26:03;;;;;;;;;12.00;9.00;;;;;8.76;45.29;101286.13;6280816;20;2764849;-52